MMTM/TAM METAR and TAF weather

Enter ICAO airport designator
Station Type Date Time Source
MMTM METAR 2022/01/19 19:42 UTC NOAA

MMTM 191942Z 10009KT 6SM FEW030 26/18 A2991 RMK 8/100 HZY


Station Type Date Time Source
MMTM Decoded METAR 2022/01/19 19:42 UTC NOAA

Tampico / Gen Fj Mina, Mexico (MMTM) 22-17N 097-52W
Jan 19, 2022 - 02:42 PM EST / 2022.01.19 1942 UTC
Wind: from the E (100 degrees) at 10 MPH (9 KT):0
Visibility: 6 mile(s):0
Sky conditions: mostly clear
Temperature: 78 F (26 C)
Dew Point: 64 F (18 C)
Relative Humidity: 61%
Pressure (altimeter): 29.91 in. Hg (1012 hPa)
ob: MMTM 191942Z 10009KT 6SM FEW030 26/18 A2991 RMK 8/100 HZY
cycle: 19

Station Type Date Time Source
MMTM TAF 2022/01/19 18:57 UTC NOAA

TAF MMTM 191655Z 1918/2018 15008KT 5SM HZ SCT040 SCT200
FM192000 13010KT P6SM SCT020 BKN200
BECMG 2002/2003 15005KT BKN020
FM200500 15005KT 4SM BR HZ OVC012
TEMPO 2010/2014 3SM BR HZ OVC010
FM201600 36020KT 4SM BR HZ BKN020

Example: see airport list